Главная страница
METAR-TAF:

METAR-TAF

Аэропорты :

Кальмар, Швеция

широта: 56-44N, долгота: 016-18E, высота над уровнем моря: 16 м

Текущие метеонаблюдения

Эта сводка был подготовлена 34 минут назад, в 07:20 UTC
Ветер 10 Узел от южный-юго-западный
Температура 7°C
Влажность 81%
Давление 1015 hPa
Видимость 10 км и более
Отдельные облака на высоте 1600 фута

METAR: ESMQ 170720Z 20010KT 9999 SCT016 07/04 Q1015

Время: 08:54 (07:54 UTC)

Прогноз

Эта сводка был подготовлена 2 часа и 24 минут назад, в 05:30 UTC
Прогноз действительный с 17-го 06 UTC до 17-го 15 UTC
Ветер 12 Узел от южный
Видимость: 8000 м
Отдельные облака на высоте 1500 фута

TAF: ESMQ 170530Z 1706/1715 19012KT 8000 SCT015

Метеонаблюдения и прогнозы для более 4000 аэропортов (сводки METAR и TAF).

Имеющиеся станции представлены на карте желтыми и красными точками.

Чтобы увидеть название станции, наведите на нее мышь.

Затем щелкните, чтобы увидеть метеонаблюдения и метеопрогнозы.

Управление картой: чтобы увеличить масштаб, щелкните зеленые кнопки с черным крестиком; чтобы уменьшить масштаб, щелкните зеленую кнопку с тире; для просмотра соседних карт щелкайте зеленые стрелки.


METAR-TAF: